Time;durP1;ratioP1;P1;durP2;ratioP2;P2;SDS_P1;SDS_P2;PMS_P1;PMS_P2;Temp;Humidity;BMP_temperature;BMP_pressure;BME280_temperature;BME280_humidity;BME280_pressure;Samples;Min_cycle;Max_cycle;Signal;HPM_P1;HPM_P2
2021/12/11 00:00:44;;;;;;;2.73;0.60;;;20.30;99.90;;;;;;5074300;28;20202;-69
2021/12/11 00:03:19;;;;;;;2.10;0.80;;;20.30;99.90;;;;;;5074547;28;20262;-69
2021/12/11 00:05:56;;;;;;;3.93;0.80;;;20.30;99.90;;;;;;5074018;28;20261;-69
2021/12/11 00:08:27;;;;;;;1.97;0.50;;;20.50;99.90;;;;;;5074314;28;20182;-72
2021/12/11 00:11:06;;;;;;;2.50;0.90;;;20.50;99.90;;;;;;5074410;28;20241;-69
2021/12/11 00:13:36;;;;;;;1.43;0.63;;;20.60;99.90;;;;;;5074072;28;20190;-70
2021/12/11 00:16:06;;;;;;;3.60;0.70;;;20.60;99.90;;;;;;5073868;28;20551;-69
2021/12/11 00:18:33;;;;;;;1.33;0.70;;;20.70;99.90;;;;;;5073959;28;20183;-69
2021/12/11 00:21:07;;;;;;;1.07;0.50;;;20.70;99.90;;;;;;5073936;28;20512;-68
2021/12/11 00:23:40;;;;;;;2.03;0.70;;;20.70;99.90;;;;;;5074083;28;20184;-69
2021/12/11 00:26:10;;;;;;;2.47;0.80;;;21.00;99.90;;;;;;5074108;28;20634;-69
2021/12/11 00:28:49;;;;;;;3.53;0.77;;;21.00;99.90;;;;;;5073910;28;20169;-70
2021/12/11 00:31:18;;;;;;;5.23;0.70;;;20.60;99.90;;;;;;5072685;28;20240;-69
2021/12/11 00:33:47;;;;;;;1.83;0.80;;;20.60;99.90;;;;;;5073831;28;20680;-70
2021/12/11 00:36:18;;;;;;;3.27;0.83;;;20.80;99.90;;;;;;5073790;28;20186;-69
2021/12/11 00:38:49;;;;;;;2.53;0.80;;;20.70;99.90;;;;;;5074065;28;20181;-70
2021/12/11 00:41:19;;;;;;;2.10;0.63;;;20.90;99.90;;;;;;5074143;28;20253;-69
2021/12/11 00:43:51;;;;;;;3.87;1.10;;;21.00;99.90;;;;;;5072498;28;20190;-70
2021/12/11 00:46:29;;;;;;;3.33;0.80;;;21.60;99.90;;;;;;5073338;28;20698;-69
2021/12/11 00:49:11;;;;;;;3.73;0.70;;;21.80;99.90;;;;;;5073450;28;20241;-69
2021/12/11 00:51:39;;;;;;;5.47;0.83;;;21.90;99.90;;;;;;5072974;28;20866;-69
2021/12/11 00:54:06;;;;;;;2.23;0.60;;;22.00;99.90;;;;;;5072464;28;20182;-68
2021/12/11 00:56:37;;;;;;;3.67;0.87;;;22.20;99.90;;;;;;5066386;28;20208;-68
2021/12/11 00:59:12;;;;;;;3.27;0.80;;;22.10;99.90;;;;;;5072004;28;20238;-68
2021/12/11 01:01:47;;;;;;;5.03;1.00;;;22.10;99.90;;;;;;5071203;28;20260;-69
2021/12/11 01:04:23;;;;;;;2.50;0.70;;;22.30;99.90;;;;;;5070664;28;20302;-69
2021/12/11 01:06:59;;;;;;;2.63;0.70;;;21.90;99.90;;;;;;5051627;28;20690;-67
2021/12/11 01:09:36;;;;;;;3.90;0.90;;;21.70;99.90;;;;;;5052389;28;20188;-67
2021/12/11 01:12:15;;;;;;;3.90;0.60;;;21.50;99.90;;;;;;5071494;28;20237;-69
2021/12/11 01:15:13;;;;;;;5.07;0.73;;;21.20;99.90;;;;;;5051645;28;20172;-69
2021/12/11 01:18:00;;;;;;;3.30;0.63;;;21.10;99.90;;;;;;5066114;28;20191;-69
2021/12/11 01:21:29;;;;;;;4.40;0.60;;;21.20;99.90;;;;;;5071482;28;20176;-70
2021/12/11 01:24:08;;;;;;;1.70;0.70;;;21.20;99.90;;;;;;5060962;28;20195;-69
2021/12/11 01:26:51;;;;;;;1.47;0.50;;;21.10;99.90;;;;;;5070001;28;20205;-69
2021/12/11 01:29:22;;;;;;;1.17;0.63;;;21.30;99.90;;;;;;5071021;28;20183;-70
2021/12/11 01:31:51;;;;;;;2.17;0.80;;;21.50;99.90;;;;;;5071393;28;20203;-68
2021/12/11 01:34:20;;;;;;;1.67;0.40;;;21.80;99.90;;;;;;5070015;28;20310;-71
2021/12/11 01:36:48;;;;;;;1.47;0.50;;;21.70;99.90;;;;;;5070186;28;20637;-71
2021/12/11 01:39:21;;;;;;;3.70;0.67;;;21.70;99.90;;;;;;5070921;28;20254;-70
2021/12/11 01:41:50;;;;;;;2.07;0.60;;;21.70;99.90;;;;;;5071332;28;20176;-68
2021/12/11 01:44:25;;;;;;;5.20;1.13;;;22.00;99.90;;;;;;5070879;28;20547;-70
2021/12/11 01:46:57;;;;;;;3.50;1.47;;;22.10;99.90;;;;;;5069727;28;20664;-71
2021/12/11 01:49:25;;;;;;;1.57;0.50;;;22.30;99.90;;;;;;5070974;28;20192;-69
2021/12/11 01:51:58;;;;;;;0.77;0.30;;;22.30;99.90;;;;;;5071168;28;20358;-70
2021/12/11 01:54:31;;;;;;;2.87;0.63;;;22.00;99.90;;;;;;5070681;28;20183;-70
2021/12/11 01:57:02;;;;;;;1.53;0.63;;;21.70;99.90;;;;;;5068223;28;20191;-70
2021/12/11 01:59:37;;;;;;;2.60;0.60;;;21.60;99.90;;;;;;5070594;28;20188;-70
2021/12/11 02:02:10;;;;;;;2.70;0.93;;;21.40;99.90;;;;;;5070549;28;20179;-71
2021/12/11 02:04:42;;;;;;;1.83;0.60;;;21.30;99.90;;;;;;5070319;28;20180;-70
2021/12/11 02:07:20;;;;;;;3.47;0.80;;;21.50;99.90;;;;;;5070146;28;20272;-69
2021/12/11 02:09:56;;;;;;;5.33;0.80;;;21.60;99.90;;;;;;5053334;28;20176;-71
2021/12/11 02:12:39;;;;;;;2.90;1.07;;;21.70;99.90;;;;;;5058027;28;20749;-69
2021/12/11 02:15:12;;;;;;;2.97;1.10;;;21.90;99.90;;;;;;5070647;28;20188;-70
2021/12/11 02:17:44;;;;;;;2.47;0.70;;;22.00;99.90;;;;;;5072107;28;20669;-70
2021/12/11 02:20:16;;;;;;;2.27;0.50;;;22.30;99.90;;;;;;5074246;28;20176;-71
2021/12/11 02:22:47;;;;;;;1.53;0.60;;;22.70;99.90;;;;;;5074685;28;20190;-69
2021/12/11 02:25:20;;;;;;;1.63;0.50;;;22.80;99.90;;;;;;5074068;28;20176;-70
2021/12/11 02:27:55;;;;;;;1.77;0.63;;;23.20;99.90;;;;;;5074481;28;20657;-71
2021/12/11 02:30:41;;;;;;;4.03;0.90;;;23.60;99.90;;;;;;5074104;28;20662;-70
2021/12/11 02:33:18;;;;;;;5.60;0.53;;;23.70;99.90;;;;;;5073902;28;20228;-69
2021/12/11 02:36:12;;;;;;;1.33;0.50;;;23.30;99.90;;;;;;5074308;28;20178;-70
2021/12/11 02:38:43;;;;;;;2.17;0.60;;;22.50;99.90;;;;;;5074095;28;20176;-69
2021/12/11 02:41:27;;;;;;;1.40;0.50;;;22.00;99.90;;;;;;5074308;28;20179;-70
2021/12/11 02:44:06;;;;;;;1.47;0.50;;;21.70;99.90;;;;;;5073915;28;20182;-70
2021/12/11 02:46:46;;;;;;;2.27;0.60;;;21.40;99.90;;;;;;5073963;28;20172;-70
2021/12/11 02:49:19;;;;;;;1.60;0.60;;;21.50;99.90;;;;;;5073990;28;20174;-70
2021/12/11 02:51:59;;;;;;;1.50;0.50;;;21.40;99.90;;;;;;5074026;28;20306;-69
2021/12/11 02:54:37;;;;;;;2.73;0.70;;;21.50;99.90;;;;;;5073708;28;20258;-69
2021/12/11 02:57:11;;;;;;;5.43;0.83;;;21.40;99.90;;;;;;5073203;28;20644;-70
2021/12/11 02:59:43;;;;;;;2.47;0.70;;;21.50;99.90;;;;;;5073614;28;20201;-68
2021/12/11 03:02:18;;;;;;;2.80;0.90;;;21.40;99.90;;;;;;5074151;28;20172;-70
2021/12/11 03:04:53;;;;;;;2.90;1.00;;;21.30;99.90;;;;;;5073590;28;20309;-70
2021/12/11 03:07:36;;;;;;;1.60;0.40;;;21.20;99.90;;;;;;5072357;28;20531;-68
2021/12/11 03:10:09;;;;;;;2.77;0.60;;;21.20;99.90;;;;;;5072350;28;20260;-69
2021/12/11 03:12:38;;;;;;;1.77;0.57;;;21.10;99.90;;;;;;5071984;28;20212;-69
2021/12/11 03:15:08;;;;;;;9.43;0.70;;;21.00;99.90;;;;;;5073338;28;20643;-69
2021/12/11 03:17:36;;;;;;;1.23;0.60;;;21.10;99.90;;;;;;5072200;28;20203;-69
2021/12/11 03:20:06;;;;;;;1.43;0.80;;;21.20;99.90;;;;;;5073266;28;20660;-70
2021/12/11 03:22:34;;;;;;;2.27;0.80;;;21.30;99.90;;;;;;5073442;28;20257;-69
2021/12/11 03:25:09;;;;;;;1.90;0.60;;;21.40;99.90;;;;;;5077582;28;20244;-69
2021/12/11 03:27:37;;;;;;;1.70;0.50;;;21.40;99.90;;;;;;5073060;28;20232;-70
2021/12/11 03:30:07;;;;;;;3.17;0.67;;;21.30;99.90;;;;;;5073325;28;20168;-68
2021/12/11 03:32:36;;;;;;;0.77;0.43;;;21.40;99.90;;;;;;5073342;28;20218;-69
2021/12/11 03:35:06;;;;;;;2.57;0.70;;;21.40;99.90;;;;;;5072605;28;20176;-69
2021/12/11 03:37:33;;;;;;;1.50;0.60;;;21.70;99.90;;;;;;5073239;28;20202;-69
2021/12/11 03:40:01;;;;;;;2.10;0.60;;;21.90;99.90;;;;;;5073133;28;20178;-69
2021/12/11 03:42:33;;;;;;;6.90;0.80;;;21.90;99.90;;;;;;5072587;28;20663;-69
2021/12/11 03:45:03;;;;;;;2.10;0.70;;;22.20;99.90;;;;;;5072666;28;20211;-69
2021/12/11 03:47:34;;;;;;;1.27;0.50;;;22.10;99.90;;;;;;5072730;28;20565;-70
2021/12/11 03:50:01;;;;;;;2.00;0.50;;;22.00;99.90;;;;;;5071271;28;20180;-68
2021/12/11 03:52:29;;;;;;;2.63;0.90;;;21.60;99.90;;;;;;5072302;28;20641;-71
2021/12/11 03:54:56;;;;;;;4.17;0.90;;;21.80;99.90;;;;;;5072109;28;20184;-70
2021/12/11 03:57:28;;;;;;;1.83;0.67;;;21.60;99.90;;;;;;5072565;28;20187;-69
2021/12/11 03:59:56;;;;;;;2.17;0.70;;;21.40;99.90;;;;;;5072734;28;20216;-69
2021/12/11 04:02:30;;;;;;;1.57;0.50;;;21.40;99.90;;;;;;5072388;28;20583;-68
2021/12/11 04:05:00;;;;;;;1.27;0.43;;;21.30;99.90;;;;;;5071949;28;20239;-69
2021/12/11 04:07:33;;;;;;;0.60;0.60;;;21.40;99.90;;;;;;5072485;28;20179;-69
2021/12/11 04:10:01;;;;;;;2.37;0.50;;;21.40;99.90;;;;;;5071980;28;20271;-70
2021/12/11 04:12:29;;;;;;;3.10;0.67;;;21.40;99.90;;;;;;5072051;28;20221;-71
2021/12/11 04:14:57;;;;;;;2.00;0.70;;;21.50;99.90;;;;;;5072284;28;20222;-70
2021/12/11 04:17:28;;;;;;;1.27;0.50;;;21.50;99.90;;;;;;5054585;28;20582;-69
2021/12/11 04:19:57;;;;;;;3.23;0.70;;;21.70;99.90;;;;;;5072124;28;20176;-70
2021/12/11 04:22:26;;;;;;;3.03;0.70;;;21.70;99.90;;;;;;5071726;28;20209;-71
2021/12/11 04:24:55;;;;;;;4.40;0.90;;;21.60;99.90;;;;;;5072416;28;20652;-73
2021/12/11 04:27:27;;;;;;;2.87;0.60;;;21.60;99.90;;;;;;5072241;28;20578;-69
2021/12/11 04:29:55;;;;;;;4.33;0.80;;;21.90;99.90;;;;;;5072337;28;20180;-70
2021/12/11 04:32:27;;;;;;;4.27;0.90;;;22.90;99.90;;;;;;5071670;28;20215;-69
2021/12/11 04:34:55;;;;;;;9.03;0.83;;;22.70;99.90;;;;;;5071950;28;20184;-70
2021/12/11 04:37:26;;;;;;;5.43;1.30;;;22.20;99.90;;;;;;5071818;28;20183;-71
2021/12/11 04:40:01;;;;;;;7.53;1.47;;;21.90;99.90;;;;;;5071418;28;20184;-72
2021/12/11 04:42:47;;;;;;;3.17;0.90;;;21.50;99.90;;;;;;5071837;28;20179;-70
2021/12/11 04:45:27;;;;;;;6.37;1.17;;;21.30;99.90;;;;;;5071510;28;20179;-71
2021/12/11 04:48:00;;;;;;;2.53;0.83;;;21.30;99.90;;;;;;5070706;28;20180;-71
2021/12/11 04:50:41;;;;;;;2.67;0.83;;;21.30;99.90;;;;;;5072063;28;20171;-71
2021/12/11 04:53:26;;;;;;;2.97;0.87;;;21.20;99.90;;;;;;5071757;28;20215;-70
2021/12/11 04:56:19;;;;;;;4.70;1.00;;;21.20;99.90;;;;;;5071633;28;20192;-70
2021/12/11 05:11:44;;;;;;;3.37;0.80;;;21.90;99.90;;;;;;5071503;28;20192;-71
2021/12/11 05:14:15;;;;;;;4.43;0.70;;;21.70;99.90;;;;;;5071661;28;20665;-69
2021/12/11 05:16:43;;;;;;;1.07;0.60;;;21.40;99.90;;;;;;5071551;28;20171;-70
2021/12/11 05:19:11;;;;;;;0.73;0.50;;;21.20;99.90;;;;;;5071459;28;20660;-70
2021/12/11 05:21:39;;;;;;;0.97;0.50;;;21.20;99.90;;;;;;5071348;28;20179;-69
2021/12/11 05:24:07;;;;;;;0.93;0.60;;;21.10;99.90;;;;;;5070872;28;20180;-70
2021/12/11 05:26:36;;;;;;;1.77;0.60;;;21.20;99.90;;;;;;5070957;28;20313;-70
2021/12/11 05:29:05;;;;;;;2.00;0.60;;;21.30;99.90;;;;;;5071749;28;20168;-70
2021/12/11 05:31:33;;;;;;;3.80;0.70;;;21.40;99.90;;;;;;5071210;28;20188;-70
2021/12/11 05:34:01;;;;;;;2.53;0.83;;;21.60;99.90;;;;;;5071587;28;20202;-70
2021/12/11 05:36:31;;;;;;;4.33;0.90;;;21.70;99.90;;;;;;5071836;28;20173;-69
2021/12/11 05:39:00;;;;;;;4.33;1.30;;;21.60;99.90;;;;;;5073152;28;20719;-71
2021/12/11 05:41:28;;;;;;;2.53;1.10;;;21.60;99.90;;;;;;5086500;28;20184;-70
2021/12/11 05:43:55;;;;;;;4.97;1.63;;;21.50;99.90;;;;;;5088911;28;20733;-69
2021/12/11 05:46:23;;;;;;;2.27;1.00;;;21.50;99.90;;;;;;5082213;28;20243;-70
2021/12/11 05:48:52;;;;;;;5.63;1.07;;;21.50;99.90;;;;;;5072231;28;20586;-70
2021/12/11 05:51:22;;;;;;;3.80;1.00;;;21.50;99.90;;;;;;5073261;28;20194;-70
2021/12/11 05:53:53;;;;;;;3.70;0.93;;;21.50;99.90;;;;;;5075220;28;20230;-69
2021/12/11 05:56:22;;;;;;;5.43;1.23;;;21.40;99.90;;;;;;5075461;28;20177;-69
2021/12/11 06:01:28;;;;;;;5.27;1.20;;;21.20;99.90;;;;;;5075049;28;20184;-69
2021/12/11 06:03:57;;;;;;;3.63;1.10;;;21.00;99.90;;;;;;5076448;28;20199;-69
2021/12/11 06:06:24;;;;;;;3.10;1.23;;;20.90;99.90;;;;;;5074988;28;20219;-70
2021/12/11 06:08:52;;;;;;;5.70;1.13;;;20.80;99.90;;;;;;5075083;28;20178;-69
2021/12/11 06:11:19;;;;;;;3.57;1.37;;;20.70;99.90;;;;;;5074590;28;20271;-68
2021/12/11 06:13:47;;;;;;;6.33;1.30;;;20.60;99.90;;;;;;5074923;28;20207;-69
2021/12/11 06:16:15;;;;;;;5.43;1.33;;;20.60;99.90;;;;;;5074781;28;20173;-69
2021/12/11 06:18:45;;;;;;;6.90;1.50;;;20.60;99.90;;;;;;5073996;28;20222;-68
2021/12/11 06:21:14;;;;;;;4.20;1.57;;;20.60;99.90;;;;;;5073979;28;20275;-69
2021/12/11 06:23:41;;;;;;;4.23;1.10;;;20.70;99.90;;;;;;5073546;28;20179;-69
2021/12/11 06:26:10;;;;;;;5.60;1.50;;;20.80;99.90;;;;;;5074174;28;20228;-70
2021/12/11 06:28:38;;;;;;;6.67;1.50;;;20.70;99.90;;;;;;5073925;28;20192;-70
2021/12/11 06:31:06;;;;;;;7.03;1.57;;;20.70;99.90;;;;;;5074088;28;20194;-69
2021/12/11 06:33:34;;;;;;;4.07;1.40;;;20.70;99.90;;;;;;5074281;28;20684;-70
2021/12/11 06:36:04;;;;;;;4.83;1.70;;;20.70;99.90;;;;;;5074302;28;20177;-69
2021/12/11 06:38:35;;;;;;;5.97;1.50;;;20.60;99.90;;;;;;5073128;28;20556;-70
2021/12/11 06:41:05;;;;;;;9.37;1.40;;;20.50;99.90;;;;;;5074477;28;20175;-70
2021/12/11 06:43:32;;;;;;;3.60;1.03;;;20.30;99.90;;;;;;5074442;28;20226;-69
2021/12/11 06:46:01;;;;;;;7.77;1.40;;;20.30;99.90;;;;;;5073966;28;20191;-69
2021/12/11 06:48:28;;;;;;;5.80;1.70;;;20.40;99.90;;;;;;5073865;28;20263;-69
2021/12/11 06:50:57;;;;;;;2.83;0.97;;;20.80;99.90;;;;;;5074253;28;20173;-70
2021/12/11 06:53:31;;;;;;;3.07;1.30;;;21.10;99.90;;;;;;5074098;28;20352;-70
2021/12/11 06:55:58;;;;;;;3.03;1.03;;;21.00;99.90;;;;;;5074008;28;20182;-69
2021/12/11 06:58:27;;;;;;;3.87;1.37;;;21.30;99.90;;;;;;5073906;28;20213;-69
2021/12/11 07:00:55;;;;;;;6.60;1.30;;;21.90;99.90;;;;;;5074123;28;20539;-70
2021/12/11 07:03:22;;;;;;;9.80;1.63;;;21.80;99.90;;;;;;5073136;28;20177;-71
2021/12/11 07:05:50;;;;;;;3.07;1.53;;;21.30;99.90;;;;;;5073744;28;20236;-70
2021/12/11 07:08:18;;;;;;;7.27;1.60;;;21.10;99.90;;;;;;5073368;28;20222;-69
2021/12/11 07:10:46;;;;;;;3.60;1.30;;;20.80;99.90;;;;;;5073818;28;20253;-69
2021/12/11 07:13:14;;;;;;;4.83;1.33;;;20.50;99.90;;;;;;5073463;28;20230;-71
2021/12/11 07:15:42;;;;;;;4.70;1.27;;;20.30;99.90;;;;;;5073421;28;20202;-69
2021/12/11 07:18:10;;;;;;;7.00;1.43;;;20.50;99.90;;;;;;5072762;28;20195;-70
2021/12/11 07:20:38;;;;;;;5.33;1.70;;;20.80;99.90;;;;;;5073751;28;20233;-70
2021/12/11 07:23:06;;;;;;;6.43;1.50;;;20.80;99.90;;;;;;5073802;28;20247;-69
2021/12/11 07:25:44;;;;;;;4.50;1.30;;;20.90;99.90;;;;;;5073277;28;20177;-70
2021/12/11 07:28:12;;;;;;;6.47;1.33;;;20.90;99.90;;;;;;5073669;28;20228;-70
2021/12/11 07:30:42;;;;;;;3.50;1.30;;;20.40;99.90;;;;;;5073627;28;20203;-70
2021/12/11 07:33:12;;;;;;;6.00;1.60;;;20.30;99.90;;;;;;5073401;28;20614;-70
2021/12/11 07:35:42;;;;;;;7.00;1.57;;;20.00;99.90;;;;;;5071533;28;20563;-69
2021/12/11 07:38:10;;;;;;;4.57;1.37;;;19.80;99.90;;;;;;5073261;28;20561;-69
2021/12/11 07:40:51;;;;;;;10.57;2.87;;;20.00;99.90;;;;;;5073281;28;20174;-69
2021/12/11 07:43:20;;;;;;;9.80;1.63;;;20.00;99.90;;;;;;5072960;28;20231;-69
2021/12/11 07:45:48;;;;;;;5.97;1.67;;;19.60;99.90;;;;;;5072784;28;20237;-70
2021/12/11 07:48:17;;;;;;;8.53;1.87;;;19.50;99.90;;;;;;5072100;28;20187;-69
2021/12/11 07:50:46;;;;;;;12.73;1.80;;;19.50;99.90;;;;;;5073059;28;20185;-68
2021/12/11 07:53:15;;;;;;;6.27;1.77;;;19.40;99.90;;;;;;5071574;28;20564;-70
2021/12/11 07:55:43;;;;;;;5.90;1.70;;;19.50;99.90;;;;;;5072237;28;20205;-71
2021/12/11 07:58:11;;;;;;;9.33;2.00;;;19.90;99.90;;;;;;5072871;28;20792;-70
2021/12/11 08:00:42;;;;;;;6.43;1.70;;;19.80;99.90;;;;;;5071706;28;20226;-68
2021/12/11 08:03:15;;;;;;;10.83;1.90;;;20.00;99.90;;;;;;5072569;28;20262;-69
2021/12/11 08:05:45;;;;;;;6.70;1.73;;;20.00;99.90;;;;;;5065889;28;20224;-68
2021/12/11 08:08:13;;;;;;;5.67;1.53;;;20.20;99.90;;;;;;5072711;28;20185;-68
2021/12/11 08:10:44;;;;;;;6.33;1.50;;;20.30;99.90;;;;;;5072498;28;20242;-69
2021/12/11 08:13:12;;;;;;;7.33;1.67;;;20.10;99.90;;;;;;5072446;28;20220;-68
2021/12/11 08:15:41;;;;;;;7.17;1.80;;;20.00;99.90;;;;;;5071052;28;20188;-69
2021/12/11 08:18:12;;;;;;;6.60;1.63;;;19.80;99.90;;;;;;5072529;28;20183;-68
2021/12/11 08:20:44;;;;;;;5.97;1.40;;;19.50;99.90;;;;;;5072418;28;20192;-69
2021/12/11 08:23:14;;;;;;;3.73;1.30;;;19.40;99.90;;;;;;5072943;28;20174;-69
2021/12/11 08:25:47;;;;;;;4.60;1.00;;;19.30;99.90;;;;;;5073582;28;20184;-71
2021/12/11 08:28:18;;;;;;;3.17;1.00;;;19.20;99.90;;;;;;5073891;28;20237;-70
2021/12/11 08:30:50;;;;;;;6.87;1.27;;;19.10;99.90;;;;;;5073069;28;20191;-70
2021/12/11 08:33:18;;;;;;;2.93;1.00;;;19.00;99.90;;;;;;5072455;28;20231;-69
2021/12/11 08:35:47;;;;;;;3.23;1.00;;;18.90;99.90;;;;;;5073584;28;20184;-68
2021/12/11 08:38:17;;;;;;;7.57;1.23;;;18.80;99.90;;;;;;5073311;28;20630;-69
2021/12/11 08:40:48;;;;;;;3.77;1.43;;;18.70;99.90;;;;;;5073889;28;20186;-68
2021/12/11 08:43:19;;;;;;;1.87;1.13;;;18.60;99.90;;;;;;5073666;28;20179;-69
2021/12/11 08:46:09;;;;;;;5.10;1.10;;;18.60;99.90;;;;;;5071403;28;20438;-70
2021/12/11 08:48:46;;;;;;;3.50;1.37;;;18.50;99.90;;;;;;5072139;28;20248;-69
2021/12/11 08:51:19;;;;;;;7.17;1.40;;;18.50;99.90;;;;;;5073353;28;20187;-70
2021/12/11 08:53:47;;;;;;;6.53;1.23;;;18.40;99.90;;;;;;5073407;28;20265;-70
2021/12/11 08:56:15;;;;;;;3.87;1.37;;;18.40;99.90;;;;;;5073394;28;20228;-69
2021/12/11 08:58:46;;;;;;;3.63;1.10;;;18.40;99.90;;;;;;5073424;28;20184;-69
2021/12/11 09:01:20;;;;;;;6.07;1.60;;;18.30;99.90;;;;;;5072670;28;20257;-68
2021/12/11 09:04:00;;;;;;;5.40;1.27;;;18.30;99.90;;;;;;5073468;28;20207;-68
2021/12/11 09:06:39;;;;;;;5.30;1.50;;;18.30;99.90;;;;;;5071739;28;20238;-69
2021/12/11 09:09:25;;;;;;;6.27;1.47;;;18.20;99.90;;;;;;5072890;28;20660;-68
2021/12/11 09:12:18;;;;;;;8.00;1.50;;;18.20;99.90;;;;;;5069823;28;20233;-68
2021/12/11 09:15:14;;;;;;;5.13;1.27;;;18.20;99.90;;;;;;5071735;28;20188;-69
2021/12/11 09:17:55;;;;;;;7.87;1.17;;;18.20;99.90;;;;;;5073262;28;20199;-69
2021/12/11 09:20:53;;;;;;;7.27;1.50;;;18.10;99.90;;;;;;5072675;28;20189;-68
2021/12/11 09:23:25;;;;;;;7.07;3.23;;;18.10;99.90;;;;;;5072813;28;20180;-68
2021/12/11 09:26:05;;;;;;;7.40;2.43;;;18.10;99.90;;;;;;5072227;28;20560;-69
2021/12/11 09:28:39;;;;;;;7.73;2.00;;;18.00;99.90;;;;;;5073229;28;20233;-70
2021/12/11 09:31:14;;;;;;;8.73;1.83;;;18.00;99.90;;;;;;5072752;28;20175;-68
2021/12/11 09:33:51;;;;;;;5.40;1.40;;;17.90;99.90;;;;;;5072883;28;20214;-69
2021/12/11 09:36:30;;;;;;;7.27;1.53;;;17.90;99.90;;;;;;5073125;28;20625;-69
2021/12/11 09:39:11;;;;;;;6.40;1.67;;;17.80;99.90;;;;;;5073025;28;20192;-69
2021/12/11 09:41:38;;;;;;;3.57;1.87;;;17.80;99.90;;;;;;5072705;28;20183;-69
2021/12/11 09:44:16;;;;;;;4.70;1.77;;;17.80;99.90;;;;;;5073151;28;20172;-69
2021/12/11 09:46:52;;;;;;;7.40;2.47;;;17.80;99.90;;;;;;5073087;28;20171;-70
2021/12/11 09:49:24;;;;;;;4.07;1.83;;;17.70;99.90;;;;;;5072649;28;20271;-70
2021/12/11 09:52:03;;;;;;;11.03;2.30;;;17.80;99.90;;;;;;5072172;28;20200;-69
2021/12/11 09:54:35;;;;;;;3.40;1.57;;;17.70;99.90;;;;;;5072572;28;20539;-69
2021/12/11 09:57:09;;;;;;;5.30;1.60;;;17.80;99.90;;;;;;5072914;28;20172;-69
2021/12/11 09:59:39;;;;;;;6.43;2.00;;;17.70;99.90;;;;;;5072583;28;20534;-69
2021/12/11 10:02:11;;;;;;;6.27;1.87;;;17.70;99.90;;;;;;5072413;28;20225;-69
2021/12/11 10:04:58;;;;;;;5.13;1.60;;;17.60;99.90;;;;;;5072331;28;20542;-69
2021/12/11 10:10:04;;;;;;;5.40;1.30;;;17.50;99.90;;;;;;5072721;28;20254;-70
2021/12/11 10:12:40;;;;;;;4.50;1.17;;;17.40;99.90;;;;;;5072264;28;20302;-69
2021/12/11 10:15:23;;;;;;;3.67;1.20;;;17.30;99.90;;;;;;5072405;28;20245;-69
2021/12/11 10:18:00;;;;;;;4.93;1.17;;;17.30;99.90;;;;;;5072263;28;20180;-68
2021/12/11 10:21:09;;;;;;;2.83;1.13;;;17.30;99.90;;;;;;5072502;28;20183;-69
2021/12/11 10:23:40;;;;;;;4.23;1.23;;;17.30;99.90;;;;;;5050369;28;20216;-69
2021/12/11 10:26:11;;;;;;;4.43;0.87;;;17.30;99.90;;;;;;5069964;28;20199;-69
2021/12/11 10:28:52;;;;;;;5.03;1.23;;;17.30;99.90;;;;;;5072254;28;20668;-70
2021/12/11 10:31:35;;;;;;;4.73;1.60;;;17.20;99.90;;;;;;5071990;28;20210;-69
2021/12/11 10:34:07;;;;;;;3.40;1.20;;;17.10;99.90;;;;;;5069704;28;20191;-69
2021/12/11 10:36:39;;;;;;;2.13;1.00;;;17.10;99.90;;;;;;5070053;28;20259;-69
2021/12/11 10:39:10;;;;;;;5.17;1.50;;;17.00;99.90;;;;;;5075529;28;20226;-69
2021/12/11 10:41:39;;;;;;;4.97;1.23;;;17.00;99.90;;;;;;5076237;28;20176;-70
2021/12/11 10:44:17;;;;;;;8.70;1.43;;;16.90;99.90;;;;;;5075275;28;20179;-70
2021/12/11 10:46:56;;;;;;;5.70;1.70;;;17.00;99.90;;;;;;5075135;28;20646;-69
2021/12/11 10:49:24;;;;;;;3.03;1.20;;;17.00;99.90;;;;;;5075159;28;20184;-69
2021/12/11 10:52:00;;;;;;;5.90;1.40;;;17.00;99.90;;;;;;5075326;28;20321;-71
2021/12/11 10:54:29;;;;;;;9.87;2.27;;;17.00;99.90;;;;;;5074158;28;20576;-70
2021/12/11 10:56:57;;;;;;;4.20;1.37;;;17.10;99.90;;;;;;5075726;28;20871;-68
2021/12/11 10:59:32;;;;;;;7.10;1.33;;;17.10;99.90;;;;;;5076094;28;20180;-70
2021/12/11 11:02:10;;;;;;;3.00;1.30;;;17.10;99.90;;;;;;5076042;28;20178;-69
2021/12/11 11:04:51;;;;;;;4.90;1.30;;;17.00;99.90;;;;;;5075174;28;20266;-69
2021/12/11 11:07:19;;;;;;;2.17;1.10;;;17.00;99.90;;;;;;5075302;28;20198;-70
2021/12/11 11:09:49;;;;;;;5.50;1.17;;;16.90;99.90;;;;;;5075582;28;20512;-70
2021/12/11 11:12:21;;;;;;;4.20;1.30;;;16.90;99.90;;;;;;5075261;28;20257;-69
2021/12/11 11:14:53;;;;;;;4.50;1.20;;;16.80;99.90;;;;;;5075351;28;20178;-69
2021/12/11 11:17:25;;;;;;;6.70;1.33;;;16.80;99.90;;;;;;5074637;28;20184;-69
2021/12/11 11:19:54;;;;;;;4.87;1.27;;;16.80;99.90;;;;;;5075265;28;20180;-69
2021/12/11 11:22:28;;;;;;;2.60;1.27;;;16.80;99.90;;;;;;5074135;28;20225;-70
2021/12/11 11:25:01;;;;;;;5.13;1.47;;;16.80;99.90;;;;;;5074922;28;20664;-68
2021/12/11 11:27:29;;;;;;;5.57;1.37;;;16.80;99.90;;;;;;5074505;28;20187;-69
2021/12/11 11:29:57;;;;;;;3.60;1.30;;;16.80;99.90;;;;;;5074839;28;20633;-69
2021/12/11 11:32:31;;;;;;;9.53;1.93;;;16.70;99.90;;;;;;5073882;28;20681;-71
2021/12/11 11:35:10;;;;;;;4.30;1.40;;;16.70;99.90;;;;;;5074982;28;20207;-70
2021/12/11 11:37:38;;;;;;;7.27;1.60;;;16.80;99.90;;;;;;5074263;28;20188;-69
2021/12/11 11:40:12;;;;;;;2.73;1.17;;;16.70;99.90;;;;;;5073977;28;20626;-69
2021/12/11 11:42:40;;;;;;;5.30;1.40;;;16.70;99.90;;;;;;5074771;28;20176;-68
2021/12/11 11:45:11;;;;;;;4.03;1.20;;;16.70;99.90;;;;;;5074871;28;20219;-69
2021/12/11 11:47:40;;;;;;;6.80;1.20;;;16.60;99.90;;;;;;5074519;28;20222;-70
2021/12/11 11:50:11;;;;;;;8.87;1.60;;;16.50;99.90;;;;;;5073360;28;20195;-69
2021/12/11 11:52:41;;;;;;;4.83;1.13;;;16.50;99.90;;;;;;5071442;28;20222;-70
2021/12/11 11:55:16;;;;;;;5.33;1.27;;;16.40;99.90;;;;;;5073757;28;20187;-69
2021/12/11 11:57:49;;;;;;;5.50;1.60;;;16.40;99.90;;;;;;5072893;28;20222;-69
2021/12/11 12:00:22;;;;;;;2.30;1.00;;;16.30;99.90;;;;;;5074652;28;20237;-70
2021/12/11 12:02:51;;;;;;;5.43;1.43;;;16.20;99.90;;;;;;5074598;28;20168;-70
2021/12/11 12:05:20;;;;;;;5.77;1.40;;;16.20;99.90;;;;;;5072980;28;20581;-70
2021/12/11 12:07:48;;;;;;;3.63;1.10;;;16.20;99.90;;;;;;5074188;28;20244;-69
2021/12/11 12:10:21;;;;;;;5.70;1.03;;;16.10;99.90;;;;;;5074362;28;20172;-69
2021/12/11 12:12:50;;;;;;;2.87;0.93;;;16.00;99.90;;;;;;5072924;28;20676;-69
2021/12/11 12:15:28;;;;;;;4.50;1.40;;;16.00;99.90;;;;;;5073748;28;20186;-70
2021/12/11 12:17:56;;;;;;;4.77;1.10;;;16.00;99.90;;;;;;5074393;28;20196;-68
2021/12/11 12:20:26;;;;;;;3.03;1.20;;;16.00;99.90;;;;;;5055040;28;20541;-70
2021/12/11 12:22:55;;;;;;;2.73;1.00;;;16.00;99.90;;;;;;5099440;28;20672;-71
2021/12/11 12:25:26;;;;;;;3.73;1.30;;;16.00;99.90;;;;;;5073975;28;20262;-68
2021/12/11 12:27:55;;;;;;;4.90;1.77;;;15.90;99.90;;;;;;5074217;28;20668;-72
2021/12/11 12:30:43;;;;;;;4.63;1.10;;;15.90;99.90;;;;;;5073748;28;20176;-70
2021/12/11 12:33:13;;;;;;;3.27;1.10;;;15.90;99.90;;;;;;5073715;28;20317;-69
2021/12/11 12:35:41;;;;;;;5.47;1.20;;;15.80;99.90;;;;;;5073880;28;20265;-70
2021/12/11 12:38:11;;;;;;;2.80;1.17;;;15.80;99.90;;;;;;5073950;28;20267;-70
2021/12/11 12:40:48;;;;;;;6.17;1.63;;;15.80;99.90;;;;;;5073851;28;20289;-71
2021/12/11 12:43:43;;;;;;;5.43;1.10;;;15.70;99.90;;;;;;5056047;28;20713;-69
2021/12/11 12:46:09;;;;;;;4.87;1.20;;;15.60;99.90;;;;;;5073688;28;20831;-69
2021/12/11 12:48:37;;;;;;;6.93;1.20;;;15.60;99.90;;;;;;5073686;28;20180;-69
2021/12/11 12:51:09;;;;;;;4.03;1.20;;;15.60;99.90;;;;;;5073532;28;20237;-68
2021/12/11 12:53:37;;;;;;;7.53;2.03;;;15.60;99.90;;;;;;5073346;28;20224;-69
2021/12/11 12:56:17;;;;;;;5.13;1.50;;;15.60;99.90;;;;;;5073509;28;20217;-70
2021/12/11 12:59:17;;;;;;;3.80;1.20;;;15.50;99.90;;;;;;5073700;28;20718;-69
2021/12/11 13:01:49;;;;;;;4.20;1.50;;;15.50;99.90;;;;;;5072972;28;20582;-70
2021/12/11 13:04:21;;;;;;;5.17;1.47;;;15.50;99.90;;;;;;5072806;28;20200;-69
2021/12/11 13:06:55;;;;;;;5.53;1.07;;;15.40;99.90;;;;;;5073495;28;20309;-70
2021/12/11 13:09:30;;;;;;;3.87;1.17;;;15.40;99.90;;;;;;5073486;28;20178;-70
2021/12/11 13:12:06;;;;;;;3.27;1.53;;;15.40;99.90;;;;;;5072812;28;20731;-69
2021/12/11 13:14:36;;;;;;;2.73;1.20;;;15.30;99.90;;;;;;5073364;28;20224;-69
2021/12/11 13:17:35;;;;;;;8.40;1.70;;;15.30;99.90;;;;;;5073425;28;20175;-71
2021/12/11 13:20:12;;;;;;;3.60;1.50;;;15.30;99.90;;;;;;5072063;28;20196;-69
2021/12/11 13:22:43;;;;;;;4.60;1.20;;;15.30;99.90;;;;;;5072998;28;20181;-70
2021/12/11 13:25:25;;;;;;;2.90;1.17;;;15.30;99.90;;;;;;5073131;28;20188;-69
2021/12/11 13:27:56;;;;;;;5.27;1.43;;;15.30;99.90;;;;;;5073264;28;20179;-68
2021/12/11 13:30:35;;;;;;;7.17;2.40;;;15.20;99.90;;;;;;5072953;28;20188;-69
2021/12/11 13:33:05;;;;;;;5.50;1.40;;;15.20;99.90;;;;;;5072875;28;20222;-69